createdAt,value
2023-03-02T00:02:15.283Z,63.61
2023-03-02T00:04:46.523Z,63.95
2023-03-02T00:07:19.457Z,63.56
2023-03-02T00:09:46.250Z,63.94
2023-03-02T00:12:13.718Z,64.01
2023-03-02T00:14:40.392Z,64.39
2023-03-02T00:17:08.050Z,64.69
2023-03-02T00:19:34.690Z,64.55
2023-03-02T00:22:01.265Z,64.88
2023-03-02T00:24:27.919Z,65.35
2023-03-02T00:26:54.641Z,65.70
2023-03-02T00:29:21.325Z,65.38
2023-03-02T00:31:48.419Z,65.41
2023-03-02T00:34:15.151Z,66.06
2023-03-02T00:36:42.057Z,65.25
2023-03-02T00:39:08.915Z,65.58
2023-03-02T00:41:35.551Z,65.98
2023-03-02T00:44:02.121Z,66.87
2023-03-02T00:46:28.842Z,65.85
2023-03-02T00:48:55.615Z,66.62
2023-03-02T00:51:22.305Z,66.18
2023-03-02T00:53:48.899Z,66.58
2023-03-02T00:56:15.571Z,67.20
2023-03-02T00:58:47.412Z,67.62
2023-03-02T01:01:15.425Z,67.40
2023-03-02T01:03:46.639Z,67.92
2023-03-02T01:06:20.632Z,67.81
2023-03-02T01:08:47.915Z,66.93
2023-03-02T01:11:17.513Z,66.95
2023-03-02T01:13:44.955Z,66.81
2023-03-02T01:16:12.164Z,66.77
2023-03-02T01:18:39.850Z,67.05
2023-03-02T01:21:13.022Z,66.95
2023-03-02T01:23:39.741Z,66.96
2023-03-02T01:26:07.452Z,67.48
2023-03-02T01:28:34.121Z,66.73
2023-03-02T01:31:02.693Z,67.30
2023-03-02T01:33:30.262Z,67.77
2023-03-02T01:35:56.958Z,66.96
2023-03-02T01:38:23.669Z,67.10
2023-03-02T01:40:50.342Z,66.71
2023-03-02T01:43:17.118Z,66.91
2023-03-02T01:45:54.238Z,66.67
2023-03-02T01:49:02.689Z,67.12
2023-03-02T01:51:43.706Z,66.46
2023-03-02T01:54:22.823Z,66.69
2023-03-02T01:57:01.200Z,67.17
2023-03-02T01:59:31.060Z,67.50
2023-03-02T02:02:00.823Z,66.79
2023-03-02T02:04:30.988Z,67.37
2023-03-02T02:07:03.671Z,66.87
2023-03-02T02:09:33.549Z,67.22
2023-03-02T02:12:00.739Z,67.22
2023-03-02T02:14:27.855Z,67.38
2023-03-02T02:16:55.066Z,67.05
2023-03-02T02:19:40.142Z,67.08
2023-03-02T02:22:09.974Z,66.72
2023-03-02T02:24:44.148Z,67.10
2023-03-02T02:27:12.214Z,66.81
2023-03-02T02:29:47.450Z,67.68
2023-03-02T02:32:21.842Z,68.19
2023-03-02T02:34:59.403Z,68.11
2023-03-02T02:37:34.376Z,68.04
2023-03-02T02:40:07.242Z,68.34
2023-03-02T02:42:39.618Z,68.64
2023-03-02T02:45:17.646Z,68.53
2023-03-02T02:47:44.454Z,69.65
2023-03-02T02:50:19.647Z,69.93
2023-03-02T02:52:52.584Z,69.51
2023-03-02T02:55:22.769Z,69.30
2023-03-02T02:57:54.856Z,69.97
2023-03-02T03:00:23.390Z,69.31
2023-03-02T03:02:58.889Z,69.36
2023-03-02T03:05:25.508Z,69.47
2023-03-02T03:07:52.943Z,69.83
2023-03-02T03:10:22.629Z,70.20
2023-03-02T03:12:50.628Z,70.24
2023-03-02T03:15:19.549Z,71.76
2023-03-02T03:17:59.255Z,71.14
2023-03-02T03:20:28.458Z,72.40
2023-03-02T03:22:55.394Z,73.43
2023-03-02T03:25:25.755Z,72.01
2023-03-02T03:27:54.293Z,71.72
2023-03-02T03:30:22.670Z,72.28
2023-03-02T03:32:49.549Z,72.56
2023-03-02T03:35:16.779Z,73.36
2023-03-02T03:37:43.965Z,72.89
2023-03-02T03:40:11.884Z,72.52
2023-03-02T03:42:42.092Z,72.58
2023-03-02T03:45:09.244Z,72.11
2023-03-02T03:47:37.101Z,72.51
2023-03-02T03:50:05.753Z,71.00
2023-03-02T03:52:33.042Z,70.58
2023-03-02T03:55:07.999Z,69.32
2023-03-02T03:57:34.971Z,68.57
2023-03-02T04:00:01.740Z,68.82
2023-03-02T04:02:28.394Z,68.12
2023-03-02T04:04:55.049Z,68.51
2023-03-02T04:07:22.072Z,68.34
2023-03-02T04:09:48.725Z,68.37
2023-03-02T04:12:15.839Z,68.36
2023-03-02T04:14:52.183Z,67.64
2023-03-02T04:17:28.298Z,67.77
2023-03-02T04:19:55.138Z,68.00
2023-03-02T04:22:22.210Z,68.57
2023-03-02T04:24:49.787Z,67.79
2023-03-02T04:27:17.301Z,67.82
2023-03-02T04:29:44.880Z,67.61
2023-03-02T04:32:14.857Z,67.18
2023-03-02T04:34:43.243Z,68.09
2023-03-02T04:37:10.462Z,67.22
2023-03-02T04:39:37.072Z,67.37
2023-03-02T04:42:03.769Z,67.38
2023-03-02T04:44:30.364Z,66.88
2023-03-02T04:46:57.115Z,66.80
2023-03-02T04:49:24.033Z,67.37
2023-03-02T04:51:50.905Z,67.09
2023-03-02T04:54:23.883Z,66.65
2023-03-02T04:56:51.695Z,67.50
2023-03-02T04:59:22.354Z,67.17
2023-03-02T05:01:49.140Z,66.70
2023-03-02T05:04:16.522Z,66.88
2023-03-02T05:06:43.266Z,66.58
2023-03-02T05:09:10.193Z,67.16
2023-03-02T05:11:37.724Z,66.78
2023-03-02T05:14:07.047Z,67.28
2023-03-02T05:16:36.070Z,66.95
2023-03-02T05:19:05.309Z,66.57
2023-03-02T05:21:31.986Z,67.06
2023-03-02T05:23:58.637Z,67.09
2023-03-02T05:26:25.221Z,67.28
2023-03-02T05:28:53.944Z,66.92
2023-03-02T05:31:39.907Z,67.19
2023-03-02T05:34:09.319Z,66.97
2023-03-02T05:36:36.386Z,67.31
2023-03-02T05:39:05.291Z,67.05
2023-03-02T05:41:31.954Z,66.76
2023-03-02T05:43:58.844Z,67.91
2023-03-02T05:46:26.245Z,67.75
2023-03-02T05:48:53.200Z,67.45
2023-03-02T05:51:19.882Z,67.77
2023-03-02T05:53:46.695Z,68.05
2023-03-02T05:56:13.296Z,67.89
2023-03-02T05:58:39.930Z,67.28
2023-03-02T06:01:12.669Z,66.76
2023-03-02T06:03:41.399Z,67.28
2023-03-02T06:06:08.042Z,67.11
2023-03-02T06:08:34.684Z,66.89
2023-03-02T06:11:01.319Z,67.46
2023-03-02T06:13:28.002Z,66.86
2023-03-02T06:15:54.558Z,66.72
2023-03-02T06:18:21.228Z,66.16
2023-03-02T06:20:49.853Z,66.21
2023-03-02T06:23:17.057Z,65.78
2023-03-02T06:25:48.585Z,66.01
2023-03-02T06:28:16.408Z,65.43
2023-03-02T06:30:43.011Z,65.59
2023-03-02T06:33:09.852Z,65.29
2023-03-02T06:35:36.619Z,65.19
2023-03-02T06:38:03.324Z,65.04
2023-03-02T06:40:30.320Z,64.90
2023-03-02T06:42:56.969Z,64.91
2023-03-02T06:45:23.683Z,65.25
2023-03-02T06:47:50.279Z,64.80
2023-03-02T06:50:16.922Z,64.71
2023-03-02T06:52:43.532Z,64.23
2023-03-02T06:55:10.457Z,64.16
2023-03-02T06:57:37.273Z,63.92
2023-03-02T07:00:11.534Z,64.02
2023-03-02T07:02:38.123Z,63.42
2023-03-02T07:05:06.434Z,63.24
2023-03-02T07:07:33.065Z,63.12
2023-03-02T07:09:59.725Z,62.93
2023-03-02T07:12:26.400Z,62.60
2023-03-02T07:14:53.142Z,62.28
2023-03-02T07:17:23.939Z,61.86
2023-03-02T07:19:50.943Z,62.01
2023-03-02T07:22:17.542Z,61.75
2023-03-02T07:24:45.074Z,60.51
2023-03-02T07:27:12.110Z,60.50
2023-03-02T07:29:38.720Z,59.83
2023-03-02T07:32:06.918Z,59.80
2023-03-02T07:34:33.584Z,59.80
2023-03-02T07:37:00.181Z,60.18
2023-03-02T07:39:26.820Z,59.69
2023-03-02T07:41:53.372Z,59.90
2023-03-02T07:44:21.506Z,59.78
2023-03-02T07:46:48.130Z,58.91
2023-03-02T07:49:14.854Z,59.83
2023-03-02T07:51:41.480Z,58.49
2023-03-02T07:54:08.693Z,59.13
2023-03-02T07:56:35.353Z,58.13
2023-03-02T07:59:01.936Z,58.19
2023-03-02T08:01:28.646Z,57.61
2023-03-02T08:03:55.258Z,57.46
2023-03-02T08:06:21.995Z,57.91
2023-03-02T08:08:48.593Z,56.74
2023-03-02T08:11:17.445Z,56.40
2023-03-02T08:13:45.147Z,56.80
2023-03-02T08:16:13.691Z,56.06
2023-03-02T08:18:41.034Z,56.23
2023-03-02T08:21:12.484Z,55.88
2023-03-02T08:23:39.205Z,55.71
2023-03-02T08:26:05.847Z,54.96
2023-03-02T08:28:33.337Z,55.41
2023-03-02T08:31:02.843Z,54.93
2023-03-02T08:33:30.865Z,54.64
2023-03-02T08:36:01.843Z,54.17
2023-03-02T08:38:29.542Z,54.35
2023-03-02T08:40:56.234Z,54.51
2023-03-02T08:43:24.780Z,53.46
2023-03-02T08:45:57.941Z,53.35
2023-03-02T08:48:26.659Z,54.41
2023-03-02T08:51:02.100Z,53.28
2023-03-02T08:53:30.787Z,53.26
2023-03-02T08:55:57.473Z,53.24
2023-03-02T08:58:24.516Z,53.24
2023-03-02T09:00:51.586Z,53.63
2023-03-02T09:03:18.243Z,53.15
2023-03-02T09:05:45.095Z,53.00
2023-03-02T09:08:12.313Z,52.54
2023-03-02T09:10:39.532Z,52.79
2023-03-02T09:13:08.458Z,52.77
2023-03-02T09:15:35.492Z,52.23
2023-03-02T09:18:02.207Z,51.62
2023-03-02T09:20:28.805Z,52.16
2023-03-02T09:22:55.423Z,52.65
2023-03-02T09:25:22.182Z,52.91
2023-03-02T09:27:48.825Z,52.46
2023-03-02T09:30:15.942Z,52.57
2023-03-02T09:32:42.760Z,51.84
2023-03-02T09:35:09.723Z,51.78
2023-03-02T09:37:38.823Z,51.15
2023-03-02T09:40:16.366Z,51.23
2023-03-02T09:43:09.901Z,51.84
2023-03-02T09:46:07.571Z,52.25
2023-03-02T09:49:04.989Z,50.52
2023-03-02T09:51:33.900Z,51.12
2023-03-02T09:54:10.029Z,50.87
2023-03-02T09:56:42.564Z,49.79
2023-03-02T09:59:18.204Z,50.29
2023-03-02T10:02:08.780Z,50.32
2023-03-02T10:04:56.223Z,50.33
2023-03-02T10:07:27.269Z,49.47
2023-03-02T10:09:55.826Z,50.46
2023-03-02T10:12:43.262Z,50.17
2023-03-02T10:15:19.022Z,49.85
2023-03-02T10:18:05.125Z,50.55
2023-03-02T10:20:42.948Z,49.96
2023-03-02T10:23:15.504Z,50.18
2023-03-02T10:25:50.609Z,50.52
2023-03-02T10:28:24.143Z,49.86
2023-03-02T10:31:09.109Z,50.35
2023-03-02T10:33:39.112Z,50.70
2023-03-02T10:36:20.475Z,50.21
2023-03-02T10:38:47.789Z,50.34
2023-03-02T10:41:24.552Z,50.31
2023-03-02T10:43:54.151Z,51.20
2023-03-02T10:46:20.856Z,49.89
2023-03-02T10:48:51.416Z,50.50
2023-03-02T10:51:30.234Z,50.95
2023-03-02T10:54:23.600Z,52.08
2023-03-02T10:56:53.273Z,49.57
2023-03-02T10:59:28.934Z,50.17
2023-03-02T11:02:14.022Z,49.98
2023-03-02T11:04:40.773Z,51.08
2023-03-02T11:07:15.460Z,50.93
2023-03-02T11:09:42.042Z,49.92
2023-03-02T11:12:16.358Z,50.36
2023-03-02T11:14:43.357Z,49.79
2023-03-02T11:17:31.265Z,50.55
2023-03-02T11:19:57.895Z,49.79
2023-03-02T11:23:01.267Z,49.92
2023-03-02T11:25:40.534Z,50.54
2023-03-02T11:28:30.382Z,49.77
2023-03-02T11:30:59.871Z,50.07
2023-03-02T11:34:23.432Z,49.60
2023-03-02T11:37:02.470Z,50.05
2023-03-02T11:39:54.635Z,50.21
2023-03-02T11:42:27.800Z,49.95
2023-03-02T11:44:55.015Z,49.58
2023-03-02T11:47:22.648Z,50.06
2023-03-02T11:49:58.429Z,49.83
2023-03-02T11:52:28.515Z,49.50
2023-03-02T11:55:00.165Z,50.24
2023-03-02T11:57:35.203Z,49.85
2023-03-02T12:00:03.486Z,50.01
2023-03-02T12:02:39.027Z,49.18
2023-03-02T12:05:22.303Z,49.29
2023-03-02T12:08:00.450Z,49.05
2023-03-02T12:10:35.888Z,49.81
2023-03-02T12:13:18.646Z,49.79
2023-03-02T12:15:47.422Z,49.19
2023-03-02T12:18:23.101Z,49.40
2023-03-02T12:21:09.420Z,50.00
2023-03-02T12:23:53.071Z,48.49
2023-03-02T12:26:19.615Z,49.12
2023-03-02T12:29:10.786Z,48.84
2023-03-02T12:31:47.730Z,48.30
2023-03-02T12:34:32.383Z,48.85
2023-03-02T12:37:04.477Z,48.23
2023-03-02T12:39:39.570Z,48.17
2023-03-02T12:42:30.746Z,48.89
2023-03-02T12:45:15.884Z,48.93
2023-03-02T12:47:49.587Z,48.81
2023-03-02T12:50:20.531Z,49.04
2023-03-02T12:53:03.310Z,48.52
2023-03-02T12:55:30.473Z,48.80
2023-03-02T12:58:01.249Z,47.43
2023-03-02T13:00:31.004Z,48.02
2023-03-02T13:02:59.368Z,47.61
2023-03-02T13:05:30.264Z,47.65
2023-03-02T13:08:01.130Z,48.38
2023-03-02T13:10:36.065Z,47.42
2023-03-02T13:13:15.544Z,47.36
2023-03-02T13:15:52.500Z,47.73
2023-03-02T13:18:21.331Z,47.08
2023-03-02T13:20:49.509Z,47.44
2023-03-02T13:23:17.765Z,47.20
2023-03-02T13:25:55.549Z,46.51
2023-03-02T13:28:27.619Z,47.37
2023-03-02T13:31:21.723Z,47.19
2023-03-02T13:33:50.640Z,46.65
2023-03-02T13:36:29.436Z,47.79
2023-03-02T13:38:59.328Z,47.57
2023-03-02T13:41:31.294Z,47.13
2023-03-02T13:43:59.413Z,46.96
2023-03-02T13:46:35.681Z,47.15
2023-03-02T13:49:10.837Z,47.62
2023-03-02T13:51:41.404Z,47.06
2023-03-02T13:54:28.349Z,46.75
2023-03-02T13:56:58.557Z,47.43
2023-03-02T13:59:25.440Z,47.74
2023-03-02T14:01:52.078Z,47.35
2023-03-02T14:04:24.310Z,47.11
2023-03-02T14:06:52.407Z,47.05
2023-03-02T14:09:19.213Z,48.00
2023-03-02T14:11:52.657Z,46.89
2023-03-02T14:14:22.735Z,47.37
2023-03-02T14:16:49.815Z,47.50
2023-03-02T14:19:18.391Z,47.76
2023-03-02T14:21:46.503Z,46.49
2023-03-02T14:24:13.384Z,47.17
2023-03-02T14:26:46.356Z,47.32
2023-03-02T14:29:18.789Z,46.79
2023-03-02T14:31:45.381Z,46.74
2023-03-02T14:34:16.502Z,46.93
2023-03-02T14:36:46.182Z,46.90
2023-03-02T14:39:23.102Z,47.21
2023-03-02T14:41:53.858Z,46.70
2023-03-02T14:44:21.900Z,46.69
2023-03-02T14:46:48.682Z,46.43
2023-03-02T14:49:15.396Z,45.88
2023-03-02T14:51:45.556Z,46.05
2023-03-02T14:54:18.243Z,45.88
2023-03-02T14:56:45.450Z,46.48
2023-03-02T14:59:15.624Z,46.07
2023-03-02T15:01:44.555Z,45.89
2023-03-02T15:04:11.609Z,46.36
2023-03-02T15:06:41.241Z,46.50
2023-03-02T15:09:08.460Z,45.89
2023-03-02T15:11:35.648Z,45.45
2023-03-02T15:14:02.498Z,45.57
2023-03-02T15:16:29.239Z,46.27
2023-03-02T15:18:58.725Z,45.23
2023-03-02T15:21:26.464Z,46.49
2023-03-02T15:23:53.212Z,46.67
2023-03-02T15:26:19.886Z,46.42
2023-03-02T15:28:50.045Z,45.86
2023-03-02T15:31:17.935Z,46.67
2023-03-02T15:33:47.898Z,45.97
2023-03-02T15:36:14.660Z,45.70
2023-03-02T15:38:41.591Z,45.81
2023-03-02T15:41:12.348Z,46.77
2023-03-02T15:43:39.506Z,46.33
2023-03-02T15:46:09.166Z,46.07
2023-03-02T15:48:37.138Z,46.49
2023-03-02T15:51:06.379Z,45.83
2023-03-02T15:53:38.228Z,45.70
2023-03-02T15:56:09.433Z,45.31
2023-03-02T15:58:36.390Z,46.01
2023-03-02T16:01:11.749Z,44.86
2023-03-02T16:03:38.546Z,45.21
2023-03-02T16:06:05.418Z,44.65
2023-03-02T16:08:32.017Z,45.10
2023-03-02T16:11:00.139Z,45.02
2023-03-02T16:13:27.522Z,45.00
2023-03-02T16:15:54.146Z,45.51
2023-03-02T16:18:20.816Z,45.46
2023-03-02T16:20:47.774Z,45.48
2023-03-02T16:23:15.982Z,45.72
2023-03-02T16:25:43.804Z,45.76
2023-03-02T16:28:13.566Z,45.67
2023-03-02T16:30:41.428Z,45.33
2023-03-02T16:33:13.283Z,45.16
2023-03-02T16:35:41.055Z,45.16
2023-03-02T16:38:10.956Z,45.70
2023-03-02T16:40:40.583Z,45.76
2023-03-02T16:43:11.507Z,46.06
2023-03-02T16:45:38.686Z,46.20
2023-03-02T16:48:06.364Z,46.22
2023-03-02T16:50:33.860Z,46.61
2023-03-02T16:53:01.168Z,47.42
2023-03-02T16:55:28.455Z,47.41
2023-03-02T16:57:55.688Z,47.50
2023-03-02T17:00:23.492Z,47.03
2023-03-02T17:02:50.637Z,47.54
2023-03-02T17:05:19.292Z,48.03
2023-03-02T17:07:45.934Z,47.49
2023-03-02T17:10:18.909Z,47.31
2023-03-02T17:12:45.618Z,47.84
2023-03-02T17:15:13.998Z,50.20
2023-03-02T17:17:41.513Z,50.23
2023-03-02T17:20:11.722Z,51.50
2023-03-02T17:22:38.585Z,52.69
2023-03-02T17:25:05.753Z,53.28
2023-03-02T17:27:32.433Z,54.45
2023-03-02T17:29:59.334Z,54.26
2023-03-02T17:32:26.012Z,55.12
2023-03-02T17:34:52.620Z,55.81
2023-03-02T17:37:19.316Z,57.49
2023-03-02T17:39:45.995Z,58.46
2023-03-02T17:42:12.590Z,59.56
2023-03-02T17:44:40.542Z,60.03
2023-03-02T17:47:08.377Z,59.84
2023-03-02T17:49:45.219Z,59.83
2023-03-02T17:52:13.459Z,59.87
2023-03-02T17:54:40.500Z,60.15
2023-03-02T17:57:07.920Z,60.03
2023-03-02T17:59:34.718Z,59.29
2023-03-02T18:02:01.433Z,60.36
2023-03-02T18:04:28.181Z,62.08
2023-03-02T18:06:54.840Z,62.82
2023-03-02T18:09:21.755Z,62.19
2023-03-02T18:11:48.638Z,63.35
2023-03-02T18:14:17.292Z,62.17
2023-03-02T18:16:44.661Z,61.69
2023-03-02T18:19:11.772Z,62.90
2023-03-02T18:21:40.223Z,62.98
2023-03-02T18:24:07.689Z,65.35
2023-03-02T18:26:34.335Z,65.59
2023-03-02T18:29:00.864Z,64.83
2023-03-02T18:31:28.429Z,65.15
2023-03-02T18:33:55.205Z,65.44
2023-03-02T18:36:21.796Z,65.73
2023-03-02T18:38:48.391Z,67.01
2023-03-02T18:41:15.055Z,65.21
2023-03-02T18:43:42.201Z,65.61
2023-03-02T18:46:18.135Z,61.28
2023-03-02T18:48:45.662Z,58.87
2023-03-02T18:51:12.568Z,57.75
2023-03-02T18:53:39.757Z,58.79
2023-03-02T18:56:08.566Z,60.18
2023-03-02T18:58:35.314Z,56.40
2023-03-02T19:01:03.037Z,55.69
2023-03-02T19:03:30.274Z,56.24
2023-03-02T19:05:58.272Z,52.70
2023-03-02T19:08:25.654Z,52.20
2023-03-02T19:10:54.617Z,53.25
2023-03-02T19:13:21.725Z,55.21
2023-03-02T19:15:48.968Z,56.34
2023-03-02T19:18:17.918Z,58.56
2023-03-02T19:20:49.451Z,56.13
2023-03-02T19:23:17.554Z,54.47
2023-03-02T19:25:45.102Z,50.17
2023-03-02T19:28:12.677Z,50.25
2023-03-02T19:30:40.331Z,49.13
2023-03-02T19:33:09.541Z,52.64
2023-03-02T19:35:38.373Z,54.18
2023-03-02T19:38:06.298Z,54.96
2023-03-02T19:40:34.644Z,55.73
2023-03-02T19:43:01.795Z,53.13
2023-03-02T19:45:32.461Z,50.54
2023-03-02T19:48:01.362Z,51.17
2023-03-02T19:50:28.249Z,51.92
2023-03-02T19:52:55.465Z,53.05
2023-03-02T19:55:24.343Z,54.33
2023-03-02T19:57:59.617Z,56.89
2023-03-02T20:00:29.513Z,58.72
2023-03-02T20:02:58.016Z,60.72
2023-03-02T20:05:27.702Z,59.53
2023-03-02T20:07:56.098Z,60.54
2023-03-02T20:10:33.975Z,59.95
2023-03-02T20:13:01.604Z,58.54
2023-03-02T20:15:31.703Z,59.63
2023-03-02T20:18:02.632Z,58.25
2023-03-02T20:20:30.889Z,60.88
2023-03-02T20:22:57.804Z,62.92
2023-03-02T20:25:25.274Z,64.29
2023-03-02T20:27:52.963Z,64.88
2023-03-02T20:30:48.102Z,63.57
2023-03-02T20:33:15.283Z,61.31
2023-03-02T20:35:44.275Z,58.42
2023-03-02T20:38:23.485Z,57.53
2023-03-02T20:40:51.152Z,58.60
2023-03-02T20:43:18.179Z,54.83
2023-03-02T20:45:45.429Z,50.92
2023-03-02T20:48:13.581Z,49.69
2023-03-02T20:50:41.339Z,50.42
2023-03-02T20:53:11.588Z,49.58
2023-03-02T20:55:39.004Z,48.20
2023-03-02T20:58:05.751Z,47.94
2023-03-02T21:00:34.516Z,47.81
2023-03-02T21:03:01.256Z,48.39
2023-03-02T21:05:29.622Z,48.29
2023-03-02T21:07:57.787Z,47.39
2023-03-02T21:10:29.688Z,47.16
2023-03-02T21:12:56.908Z,47.19
2023-03-02T21:15:27.110Z,46.84
2023-03-02T21:17:55.567Z,48.27
2023-03-02T21:20:24.359Z,48.03
2023-03-02T21:22:51.180Z,48.29
2023-03-02T21:25:20.171Z,48.18
2023-03-02T21:27:46.912Z,49.07
2023-03-02T21:30:20.410Z,48.20
2023-03-02T21:32:48.622Z,48.19
2023-03-02T21:35:18.236Z,48.50
2023-03-02T21:37:44.978Z,48.60
2023-03-02T21:40:26.599Z,48.56
2023-03-02T21:42:53.905Z,48.62
2023-03-02T21:45:22.779Z,48.31
2023-03-02T21:47:51.047Z,49.05
2023-03-02T21:50:23.047Z,48.18
2023-03-02T21:52:49.702Z,48.89
2023-03-02T21:55:16.540Z,48.63
2023-03-02T21:57:43.733Z,49.11
2023-03-02T22:00:19.951Z,49.43
2023-03-02T22:02:47.511Z,49.00
2023-03-02T22:05:14.326Z,49.55
2023-03-02T22:07:40.975Z,49.64
2023-03-02T22:10:15.454Z,49.93
2023-03-02T22:12:44.516Z,49.83
2023-03-02T22:15:14.523Z,50.30
2023-03-02T22:17:42.279Z,50.60
2023-03-02T22:20:19.883Z,51.93
2023-03-02T22:22:49.676Z,52.72
2023-03-02T22:25:18.296Z,55.76
2023-03-02T22:27:46.547Z,54.26
2023-03-02T22:30:20.072Z,53.00
2023-03-02T22:32:47.637Z,53.22
2023-03-02T22:35:23.481Z,53.74
2023-03-02T22:37:51.998Z,56.87
2023-03-02T22:40:36.815Z,58.01
2023-03-02T22:43:15.497Z,57.97
2023-03-02T22:45:42.399Z,58.18
2023-03-02T22:48:18.635Z,58.99
2023-03-02T22:50:47.011Z,59.23
2023-03-02T22:53:31.598Z,59.67
2023-03-02T22:56:03.575Z,59.45
2023-03-02T22:58:42.718Z,61.21
2023-03-02T23:01:37.075Z,62.29
2023-03-02T23:04:12.823Z,63.03
2023-03-02T23:06:53.774Z,62.50
2023-03-02T23:09:24.344Z,62.35
2023-03-02T23:11:51.674Z,63.46
2023-03-02T23:14:28.357Z,62.03
2023-03-02T23:17:23.444Z,63.22
2023-03-02T23:19:51.306Z,63.81
2023-03-02T23:22:18.945Z,65.18
2023-03-02T23:24:47.593Z,65.32
2023-03-02T23:27:14.257Z,64.15
2023-03-02T23:29:41.013Z,63.59
2023-03-02T23:32:07.744Z,62.46
2023-03-02T23:34:34.433Z,62.61
2023-03-02T23:37:01.046Z,62.44
2023-03-02T23:39:27.820Z,61.68
2023-03-02T23:41:54.946Z,62.45
2023-03-02T23:44:21.786Z,62.65
2023-03-02T23:46:49.297Z,63.84
2023-03-02T23:49:16.241Z,63.29
2023-03-02T23:51:43.476Z,64.10
2023-03-02T23:54:10.612Z,64.16
2023-03-02T23:56:37.327Z,64.97
2023-03-02T23:59:04.702Z,64.99
